createdAt,value
2023-12-23T00:02:43.134Z,98677.47
2023-12-23T00:05:45.518Z,98678.09
2023-12-23T00:08:47.910Z,98679.63
2023-12-23T00:11:51.609Z,98670.94
2023-12-23T00:14:54.128Z,98678.81
2023-12-23T00:17:56.976Z,98673.38
2023-12-23T00:20:59.978Z,98655.06
2023-12-23T00:24:02.698Z,98653.84
2023-12-23T00:27:05.757Z,98647.16
2023-12-23T00:30:08.873Z,98630.78
2023-12-23T00:33:11.374Z,98650.72
2023-12-23T00:36:13.885Z,98659.34
2023-12-23T00:39:16.491Z,98665.41
2023-12-23T00:42:18.833Z,98663.56
2023-12-23T00:45:21.250Z,98646.25
2023-12-23T00:48:23.757Z,98643.16
2023-12-23T00:51:26.211Z,98654.22
2023-12-23T00:54:28.591Z,98668.16
2023-12-23T00:57:30.969Z,98667.41
2023-12-23T01:00:33.706Z,98678.50
2023-12-23T01:03:36.124Z,98685.56
2023-12-23T01:06:38.569Z,98692.00
2023-12-23T01:09:41.020Z,98703.22
2023-12-23T01:12:43.416Z,98814.16
2023-12-23T01:15:45.797Z,98841.66
2023-12-23T01:18:49.124Z,98834.50
2023-12-23T01:21:51.823Z,98885.97
2023-12-23T01:24:54.322Z,98893.50
2023-12-23T01:28:01.296Z,98911.44
2023-12-23T01:31:03.801Z,98895.88
2023-12-23T01:34:06.147Z,98874.34
2023-12-23T01:37:08.544Z,98873.53
2023-12-23T01:40:11.168Z,98888.53
2023-12-23T01:43:13.506Z,98896.31
2023-12-23T01:46:15.981Z,98913.38
2023-12-23T01:49:18.789Z,98892.63
2023-12-23T01:52:21.208Z,98882.38
2023-12-23T01:55:24.860Z,98867.00
2023-12-23T01:58:27.512Z,98858.53
2023-12-23T02:01:31.944Z,98869.75
2023-12-23T02:04:35.223Z,98875.75
2023-12-23T02:07:37.656Z,98883.19
2023-12-23T02:10:41.331Z,98904.22
2023-12-23T02:14:02.237Z,98920.53
2023-12-23T02:17:04.875Z,98916.22
2023-12-23T02:20:08.016Z,98902.63
2023-12-23T02:23:10.568Z,98906.94
2023-12-23T02:26:13.032Z,98910.47
2023-12-23T02:29:15.487Z,98905.00
2023-12-23T02:32:18.127Z,98909.78
2023-12-23T02:35:23.855Z,98910.41
2023-12-23T02:38:26.259Z,98900.16
2023-12-23T02:41:28.709Z,98905.91
2023-12-23T02:44:31.092Z,98899.16
2023-12-23T02:47:33.534Z,98898.53
2023-12-23T02:50:37.281Z,98896.88
2023-12-23T02:53:39.665Z,98894.13
2023-12-23T02:56:42.036Z,98907.47
2023-12-23T02:59:44.416Z,98912.88
2023-12-23T03:02:47.088Z,98904.72
2023-12-23T03:05:50.716Z,98911.16
2023-12-23T03:08:53.152Z,98917.13
2023-12-23T03:11:55.497Z,98902.81
2023-12-23T03:14:58.076Z,98905.03
2023-12-23T03:18:00.505Z,98920.94
2023-12-23T03:21:04.944Z,98910.84
2023-12-23T03:24:07.394Z,98931.03
2023-12-23T03:27:09.978Z,98925.75
2023-12-23T03:30:12.938Z,98936.78
2023-12-23T03:33:17.306Z,98942.28
2023-12-23T03:36:19.882Z,98950.50
2023-12-23T03:39:22.271Z,98942.19
2023-12-23T03:42:24.658Z,98956.88
2023-12-23T03:45:29.213Z,98967.41
2023-12-23T03:48:31.700Z,98966.28
2023-12-23T03:51:34.053Z,98977.22
2023-12-23T03:54:36.393Z,98954.56
2023-12-23T03:57:38.774Z,98947.28
2023-12-23T04:00:42.109Z,98974.38
2023-12-23T04:03:45.051Z,99004.41
2023-12-23T04:06:47.542Z,99009.56
2023-12-23T04:09:50.607Z,99041.16
2023-12-23T04:12:53.489Z,99065.41
2023-12-23T04:15:56.272Z,99066.00
2023-12-23T04:18:58.989Z,99084.63
2023-12-23T04:22:01.468Z,99084.84
2023-12-23T04:25:04.622Z,99091.50
2023-12-23T04:28:07.381Z,99098.38
2023-12-23T04:31:09.876Z,99090.09
2023-12-23T04:34:12.496Z,99142.03
2023-12-23T04:37:14.924Z,99160.09
2023-12-23T04:40:17.747Z,99167.16
2023-12-23T04:43:20.131Z,99169.53
2023-12-23T04:46:23.860Z,99174.13
2023-12-23T04:49:26.763Z,99173.81
2023-12-23T04:52:29.173Z,99183.81
2023-12-23T04:55:31.616Z,99196.94
2023-12-23T04:58:34.031Z,99217.44
2023-12-23T05:01:36.564Z,99220.06
2023-12-23T05:04:38.947Z,99225.50
2023-12-23T05:07:42.904Z,99242.50
2023-12-23T05:10:45.422Z,99253.59
2023-12-23T05:13:47.793Z,99275.56
2023-12-23T05:16:50.186Z,99293.84
2023-12-23T05:19:52.656Z,99284.44
2023-12-23T05:22:55.174Z,99291.31
2023-12-23T05:25:58.118Z,99302.38
2023-12-23T05:29:00.546Z,99320.44
2023-12-23T05:32:04.728Z,99314.06
2023-12-23T05:35:07.574Z,99317.44
2023-12-23T05:38:10.024Z,99327.50
2023-12-23T05:41:12.492Z,99326.56
2023-12-23T05:44:14.953Z,99324.47
2023-12-23T05:47:17.421Z,99339.38
2023-12-23T05:50:20.032Z,99351.53
2023-12-23T05:53:22.604Z,99354.28
2023-12-23T05:56:25.129Z,99361.16
2023-12-23T05:59:27.582Z,99358.09
2023-12-23T06:02:30.050Z,99354.09
2023-12-23T06:05:32.541Z,99349.78
2023-12-23T06:08:34.927Z,99362.91
2023-12-23T06:11:37.934Z,99380.03
2023-12-23T06:14:41.479Z,99380.53
2023-12-23T06:17:43.821Z,99394.28
2023-12-23T06:20:46.198Z,99393.66
2023-12-23T06:23:48.547Z,99381.00
2023-12-23T06:26:50.876Z,99402.78
2023-12-23T06:29:53.465Z,99403.75
2023-12-23T06:32:56.127Z,99432.56
2023-12-23T06:35:58.583Z,99444.75
2023-12-23T06:39:00.963Z,99451.66
2023-12-23T06:42:03.518Z,99463.81
2023-12-23T06:45:06.247Z,99473.25
2023-12-23T06:48:08.819Z,99475.00
2023-12-23T06:51:11.335Z,99496.94
2023-12-23T06:54:13.687Z,99490.22
2023-12-23T06:57:16.227Z,99495.69
2023-12-23T07:00:18.783Z,99492.78
2023-12-23T07:03:21.985Z,99499.19
2023-12-23T07:06:24.357Z,99509.13
2023-12-23T07:09:26.692Z,99504.97
2023-12-23T07:12:29.125Z,99505.75
2023-12-23T07:15:31.878Z,99522.41
2023-12-23T07:18:34.413Z,99531.22
2023-12-23T07:21:36.807Z,99546.88
2023-12-23T07:24:40.373Z,99557.47
2023-12-23T07:27:42.883Z,99560.31
2023-12-23T07:30:48.394Z,99575.19
2023-12-23T07:33:51.075Z,99598.53
2023-12-23T07:36:53.501Z,99604.47
2023-12-23T07:39:57.266Z,99600.16
2023-12-23T07:43:00.244Z,99592.03
2023-12-23T07:46:06.839Z,99575.38
2023-12-23T07:49:09.237Z,99575.06
2023-12-23T07:52:11.721Z,99599.75
2023-12-23T07:55:14.139Z,99610.00
2023-12-23T07:58:16.565Z,99620.25
2023-12-23T08:01:19.149Z,99623.28
2023-12-23T08:04:21.600Z,99624.25
2023-12-23T08:07:24.077Z,99618.34
2023-12-23T08:10:26.495Z,99605.41
2023-12-23T08:13:29.771Z,99623.81
2023-12-23T08:16:32.240Z,99615.34
2023-12-23T08:19:34.612Z,99615.97
2023-12-23T08:22:36.996Z,99618.88
2023-12-23T08:25:39.363Z,99614.22
2023-12-23T08:28:43.342Z,99633.91
2023-12-23T08:31:46.908Z,99658.44
2023-12-23T08:34:49.389Z,99679.75
2023-12-23T08:37:53.204Z,99686.16
2023-12-23T08:40:55.830Z,99703.81
2023-12-23T08:43:58.448Z,99700.59
2023-12-23T08:47:00.856Z,99692.56
2023-12-23T08:50:03.496Z,99694.66
2023-12-23T08:53:05.942Z,99688.59
2023-12-23T08:56:08.466Z,99702.19
2023-12-23T08:59:10.926Z,99710.41
2023-12-23T09:02:13.438Z,99736.53
2023-12-23T09:05:15.901Z,99745.53
2023-12-23T09:08:18.912Z,99735.41
2023-12-23T09:11:21.677Z,99751.94
2023-12-23T09:14:24.215Z,99748.72
2023-12-23T09:17:26.927Z,99756.09
2023-12-23T09:20:30.604Z,99757.72
2023-12-23T09:23:33.026Z,99736.38
2023-12-23T09:26:36.714Z,99726.75
2023-12-23T09:29:39.134Z,99729.63
2023-12-23T09:32:41.570Z,99730.44
2023-12-23T09:35:43.976Z,99741.03
2023-12-23T09:38:46.421Z,99744.06
2023-12-23T09:41:49.506Z,99762.69
2023-12-23T09:44:51.992Z,99745.81
2023-12-23T09:47:54.626Z,99739.25
2023-12-23T09:50:57.288Z,99725.94
2023-12-23T09:54:07.146Z,99731.25
2023-12-23T09:57:09.777Z,99731.25
2023-12-23T10:00:13.286Z,99731.25
2023-12-23T10:03:17.865Z,99733.34
2023-12-23T10:06:22.494Z,99720.50
2023-12-23T10:09:25.901Z,99699.81
2023-12-23T10:12:28.332Z,99696.44
2023-12-23T10:15:30.970Z,99702.22
2023-12-23T10:18:33.412Z,99689.72
2023-12-23T10:21:36.886Z,99676.53
2023-12-23T10:24:39.351Z,99683.94
2023-12-23T10:27:42.554Z,99675.44
2023-12-23T10:30:47.933Z,99671.41
2023-12-23T10:33:56.810Z,99663.22
2023-12-23T10:36:59.996Z,99650.41
2023-12-23T10:40:10.858Z,99665.94
2023-12-23T10:43:13.612Z,99658.56
2023-12-23T10:46:16.541Z,99630.50
2023-12-23T10:49:19.045Z,99642.84
2023-12-23T10:52:21.440Z,99653.44
2023-12-23T10:55:25.263Z,99639.13
2023-12-23T10:58:27.997Z,99615.72
2023-12-23T11:01:32.439Z,99600.78
2023-12-23T11:04:35.149Z,99626.47
2023-12-23T11:07:41.088Z,99617.94
2023-12-23T11:10:43.504Z,99613.81
2023-12-23T11:13:46.133Z,99620.34
2023-12-23T11:16:51.286Z,99603.16
2023-12-23T11:20:00.607Z,99587.47
2023-12-23T11:23:27.921Z,99586.34
2023-12-23T11:26:36.626Z,99601.25
2023-12-23T11:29:39.163Z,99590.69
2023-12-23T11:32:42.854Z,99592.13
2023-12-23T11:35:52.558Z,99569.50
2023-12-23T11:38:55.120Z,99573.81
2023-12-23T11:41:57.523Z,99549.44
2023-12-23T11:44:59.858Z,99556.31
2023-12-23T11:48:02.208Z,99548.47
2023-12-23T11:51:04.830Z,99539.63
2023-12-23T11:54:07.982Z,99531.25
2023-12-23T11:57:10.546Z,99534.22
2023-12-23T12:00:13.495Z,99535.50
2023-12-23T12:03:15.826Z,99520.75
2023-12-23T12:06:18.366Z,99536.97
2023-12-23T12:09:21.232Z,99508.41
2023-12-23T12:12:23.689Z,99525.75
2023-12-23T12:15:26.116Z,99498.41
2023-12-23T12:18:28.563Z,99521.03
2023-12-23T12:21:30.932Z,99488.91
2023-12-23T12:24:36.609Z,99518.41
2023-12-23T12:27:39.770Z,99500.66
2023-12-23T12:30:42.179Z,99496.91
2023-12-23T12:33:44.826Z,99473.34
2023-12-23T12:36:47.328Z,99481.94
2023-12-23T12:39:49.693Z,99478.81
2023-12-23T12:42:53.099Z,99464.59
2023-12-23T12:45:55.847Z,99455.66
2023-12-23T12:48:58.283Z,99460.22
2023-12-23T12:52:01.154Z,99430.13
2023-12-23T12:55:07.861Z,99438.84
2023-12-23T12:58:10.201Z,99443.88
2023-12-23T13:01:12.893Z,99442.19
2023-12-23T13:04:15.349Z,99424.19
2023-12-23T13:07:17.701Z,99417.47
2023-12-23T13:10:20.721Z,99410.56
2023-12-23T13:13:23.093Z,99411.56
2023-12-23T13:16:25.430Z,99398.09
2023-12-23T13:19:27.884Z,99409.06
2023-12-23T13:22:30.868Z,99366.44
2023-12-23T13:25:33.334Z,99400.03
2023-12-23T13:28:35.669Z,99391.63
2023-12-23T13:31:38.070Z,99389.56
2023-12-23T13:34:40.773Z,99407.88
2023-12-23T13:37:43.207Z,99401.41
2023-12-23T13:40:46.908Z,99400.50
2023-12-23T13:43:50.304Z,99408.81
2023-12-23T13:46:55.289Z,99383.47
2023-12-23T13:49:58.000Z,99401.72
2023-12-23T13:53:00.489Z,99409.13
2023-12-23T13:56:03.475Z,99412.41
2023-12-23T13:59:05.872Z,99407.00
2023-12-23T14:02:11.296Z,99418.09
2023-12-23T14:05:13.755Z,99448.28
2023-12-23T14:08:16.157Z,99445.19
2023-12-23T14:11:18.602Z,99445.66
2023-12-23T14:14:21.099Z,99437.72
2023-12-23T14:17:23.563Z,99436.88
2023-12-23T14:20:26.016Z,99426.22
2023-12-23T14:23:28.429Z,99410.88
2023-12-23T14:26:30.972Z,99408.63
2023-12-23T14:29:33.503Z,99412.81
2023-12-23T14:32:35.953Z,99400.13
2023-12-23T14:35:38.439Z,99389.84
2023-12-23T14:38:40.890Z,99383.88
2023-12-23T14:41:43.307Z,99385.81
2023-12-23T14:44:45.678Z,99378.94
2023-12-23T14:47:48.077Z,99375.25
2023-12-23T14:50:50.453Z,99364.09
2023-12-23T14:53:52.803Z,99379.03
2023-12-23T14:56:55.517Z,99377.88
2023-12-23T14:59:57.911Z,99382.91
2023-12-23T15:03:00.957Z,99370.84
2023-12-23T15:06:03.830Z,99374.69
2023-12-23T15:09:08.228Z,99395.94
2023-12-23T15:12:18.656Z,99374.63
2023-12-23T15:15:21.228Z,99396.13
2023-12-23T15:18:23.650Z,99372.34
2023-12-23T15:21:26.141Z,99383.06
2023-12-23T15:24:28.504Z,99345.06
2023-12-23T15:27:30.876Z,99364.00
2023-12-23T15:30:33.315Z,99359.50
2023-12-23T15:33:35.770Z,99351.31
2023-12-23T15:36:38.191Z,99344.00
2023-12-23T15:39:40.590Z,99379.88
2023-12-23T15:42:43.201Z,99328.13
2023-12-23T15:45:45.551Z,99322.00
2023-12-23T15:48:48.632Z,99329.75
2023-12-23T15:51:51.101Z,99317.75
2023-12-23T15:54:53.613Z,99333.69
2023-12-23T15:57:56.208Z,99339.72
2023-12-23T16:00:58.575Z,99332.16
2023-12-23T16:04:01.297Z,99321.22
2023-12-23T16:07:03.846Z,99326.66
2023-12-23T16:10:06.538Z,99328.59
2023-12-23T16:13:09.471Z,99337.09
2023-12-23T16:16:11.864Z,99336.66
2023-12-23T16:19:14.359Z,99341.66
2023-12-23T16:22:17.009Z,99346.09
2023-12-23T16:25:19.430Z,99339.72
2023-12-23T16:28:21.834Z,99349.53
2023-12-23T16:31:24.400Z,99338.28
2023-12-23T16:34:26.974Z,99333.78
2023-12-23T16:37:29.484Z,99340.78
2023-12-23T16:40:31.830Z,99334.13
2023-12-23T16:43:34.173Z,99340.69
2023-12-23T16:46:36.538Z,99334.19
2023-12-23T16:49:41.659Z,99331.00
2023-12-23T16:52:45.232Z,99329.22
2023-12-23T16:55:48.172Z,99342.78
2023-12-23T16:58:51.558Z,99337.03
2023-12-23T17:01:54.015Z,99339.25
2023-12-23T17:04:56.511Z,99337.31
2023-12-23T17:07:58.975Z,99338.81
2023-12-23T17:11:01.437Z,99350.38
2023-12-23T17:14:03.926Z,99344.53
2023-12-23T17:17:06.388Z,99344.22
2023-12-23T17:20:09.522Z,99360.28
2023-12-23T17:23:12.562Z,99341.25
2023-12-23T17:26:15.002Z,99348.16
2023-12-23T17:29:17.496Z,99360.88
2023-12-23T17:32:19.987Z,99366.50
2023-12-23T17:35:22.483Z,99367.63
2023-12-23T17:38:24.925Z,99368.94
2023-12-23T17:41:27.379Z,99369.28
2023-12-23T17:44:29.836Z,99365.28
2023-12-23T17:47:32.365Z,99368.00
2023-12-23T17:50:35.367Z,99365.28
2023-12-23T17:53:37.818Z,99355.97
2023-12-23T17:56:41.029Z,99368.97
2023-12-23T17:59:43.854Z,99367.22
2023-12-23T18:02:46.328Z,99347.03
2023-12-23T18:05:48.704Z,99353.94
2023-12-23T18:08:51.090Z,99358.25
2023-12-23T18:11:53.622Z,99352.44
2023-12-23T18:14:57.496Z,99365.72
2023-12-23T18:17:59.889Z,99348.59
2023-12-23T18:21:02.289Z,99347.59
2023-12-23T18:24:05.002Z,99347.50
2023-12-23T18:27:08.717Z,99357.44
2023-12-23T18:30:11.779Z,99361.00
2023-12-23T18:33:15.229Z,99353.78
2023-12-23T18:36:18.257Z,99356.53
2023-12-23T18:39:20.580Z,99364.84
2023-12-23T18:42:22.935Z,99370.94
2023-12-23T18:45:25.315Z,99373.03
2023-12-23T18:48:27.754Z,99379.28
2023-12-23T18:51:31.056Z,99372.25
2023-12-23T18:54:33.819Z,99384.94
2023-12-23T18:57:36.260Z,99376.44
2023-12-23T19:00:38.801Z,99387.63
2023-12-23T19:03:41.351Z,99385.88
2023-12-23T19:06:43.841Z,99388.44
2023-12-23T19:09:47.230Z,99376.94
2023-12-23T19:12:49.872Z,99399.97
2023-12-23T19:15:52.410Z,99401.72
2023-12-23T19:18:54.952Z,99408.47
2023-12-23T19:21:58.547Z,99414.06
2023-12-23T19:25:02.950Z,99412.75
2023-12-23T19:28:06.045Z,99422.38
2023-12-23T19:31:08.457Z,99423.16
2023-12-23T19:34:10.838Z,99421.84
2023-12-23T19:37:13.241Z,99432.56
2023-12-23T19:40:15.695Z,99444.56
2023-12-23T19:43:19.860Z,99445.03
2023-12-23T19:46:22.324Z,99452.88
2023-12-23T19:49:24.782Z,99461.97
2023-12-23T19:52:27.294Z,99462.22
2023-12-23T19:55:29.668Z,99476.41
2023-12-23T19:58:32.028Z,99480.03
2023-12-23T20:01:34.399Z,99494.41
2023-12-23T20:04:37.627Z,99505.56
2023-12-23T20:07:39.967Z,99500.25
2023-12-23T20:10:42.333Z,99500.59
2023-12-23T20:13:44.672Z,99507.72
2023-12-23T20:16:47.035Z,99514.75
2023-12-23T20:19:49.400Z,99518.88
2023-12-23T20:22:52.041Z,99534.03
2023-12-23T20:25:54.573Z,99514.41
2023-12-23T20:28:57.015Z,99528.06
2023-12-23T20:31:59.393Z,99523.44
2023-12-23T20:35:01.821Z,99534.97
2023-12-23T20:38:04.503Z,99543.31
2023-12-23T20:41:07.162Z,99550.69
2023-12-23T20:44:09.675Z,99541.25
2023-12-23T20:47:12.158Z,99549.75
2023-12-23T20:50:14.889Z,99545.13
2023-12-23T20:53:17.410Z,99550.78
2023-12-23T20:56:30.688Z,99541.66
2023-12-23T20:59:33.122Z,99548.22
2023-12-23T21:02:35.645Z,99557.81
2023-12-23T21:05:38.144Z,99575.13
2023-12-23T21:08:40.574Z,99581.13
2023-12-23T21:11:42.980Z,99585.47
2023-12-23T21:14:45.420Z,99605.88
2023-12-23T21:17:47.869Z,99615.59
2023-12-23T21:20:50.307Z,99627.88
2023-12-23T21:23:52.715Z,99626.91
2023-12-23T21:26:55.068Z,99651.84
2023-12-23T21:29:57.506Z,99644.59
2023-12-23T21:33:00.062Z,99653.75
2023-12-23T21:36:02.498Z,99664.31
2023-12-23T21:39:05.078Z,99688.44
2023-12-23T21:42:07.531Z,99676.41
2023-12-23T21:45:10.103Z,99687.53
2023-12-23T21:48:12.681Z,99696.56
2023-12-23T21:51:15.076Z,99705.06
2023-12-23T21:54:17.464Z,99715.53
2023-12-23T21:57:20.803Z,99722.41
2023-12-23T22:00:23.394Z,99723.53
2023-12-23T22:03:27.366Z,99738.31
2023-12-23T22:06:29.790Z,99741.53
2023-12-23T22:09:32.158Z,99744.63
2023-12-23T22:12:34.728Z,99745.28
2023-12-23T22:15:37.184Z,99746.06
2023-12-23T22:18:39.704Z,99754.41
2023-12-23T22:21:42.356Z,99763.09
2023-12-23T22:24:45.234Z,99766.63
2023-12-23T22:27:47.701Z,99763.41
2023-12-23T22:30:51.144Z,99766.50
2023-12-23T22:33:53.670Z,99761.38
2023-12-23T22:36:57.145Z,99771.16
2023-12-23T22:40:01.279Z,99766.34
2023-12-23T22:43:03.816Z,99768.63
2023-12-23T22:46:06.282Z,99772.59
2023-12-23T22:49:08.701Z,99779.03
2023-12-23T22:52:11.107Z,99775.69
2023-12-23T22:55:13.475Z,99772.31
2023-12-23T22:58:15.876Z,99770.38
2023-12-23T23:01:18.343Z,99770.03
2023-12-23T23:04:20.789Z,99757.38
2023-12-23T23:07:23.123Z,99773.88
2023-12-23T23:10:25.534Z,99775.84
2023-12-23T23:13:27.981Z,99775.03
2023-12-23T23:16:30.363Z,99767.00
2023-12-23T23:19:32.977Z,99776.13
2023-12-23T23:22:35.537Z,99778.50
2023-12-23T23:25:37.921Z,99777.53
2023-12-23T23:28:40.296Z,99777.22
2023-12-23T23:31:42.665Z,99779.16
2023-12-23T23:34:45.312Z,99783.97
2023-12-23T23:37:48.165Z,99777.56
2023-12-23T23:40:51.819Z,99790.22
2023-12-23T23:43:54.343Z,99779.66
2023-12-23T23:46:56.787Z,99803.03
2023-12-23T23:50:00.070Z,99809.44
2023-12-23T23:53:03.377Z,99808.97
2023-12-23T23:56:06.136Z,99814.91
2023-12-23T23:59:09.117Z,99825.63
